sensor_id;sensor_type;location;lat;lon;timestamp;temperature;humidity
23143;DHT22;11740;51.168;4.112;2022-08-19T00:01:22;22.00;1.00
23143;DHT22;11740;51.168;4.112;2022-08-19T00:03:55;22.00;1.00
23143;DHT22;11740;51.168;4.112;2022-08-19T00:06:26;21.90;1.00
23143;DHT22;11740;51.168;4.112;2022-08-19T00:08:54;21.90;1.00
23143;DHT22;11740;51.168;4.112;2022-08-19T00:11:22;21.80;66.40
23143;DHT22;11740;51.168;4.112;2022-08-19T00:13:52;21.60;99.90
23143;DHT22;11740;51.168;4.112;2022-08-19T00:16:22;21.50;1.00
23143;DHT22;11740;51.168;4.112;2022-08-19T00:18:55;21.30;99.90
23143;DHT22;11740;51.168;4.112;2022-08-19T00:21:23;21.20;99.90
23143;DHT22;11740;51.168;4.112;2022-08-19T00:23:51;21.20;99.90
23143;DHT22;11740;51.168;4.112;2022-08-19T00:26:18;21.20;99.90
23143;DHT22;11740;51.168;4.112;2022-08-19T00:28:46;21.20;1.00
23143;DHT22;11740;51.168;4.112;2022-08-19T00:31:13;21.00;37.40
23143;DHT22;11740;51.168;4.112;2022-08-19T00:33:40;21.10;1.00
23143;DHT22;11740;51.168;4.112;2022-08-19T00:36:07;21.10;99.90
23143;DHT22;11740;51.168;4.112;2022-08-19T00:38:36;21.20;99.90
23143;DHT22;11740;51.168;4.112;2022-08-19T00:41:05;21.20;1.00
23143;DHT22;11740;51.168;4.112;2022-08-19T00:43:32;21.10;99.90
23143;DHT22;11740;51.168;4.112;2022-08-19T00:45:59;21.00;99.90
23143;DHT22;11740;51.168;4.112;2022-08-19T00:48:27;20.90;1.00
23143;DHT22;11740;51.168;4.112;2022-08-19T00:50:55;20.80;1.00
23143;DHT22;11740;51.168;4.112;2022-08-19T00:53:22;20.80;99.90
23143;DHT22;11740;51.168;4.112;2022-08-19T00:55:51;20.80;99.90
23143;DHT22;11740;51.168;4.112;2022-08-19T00:58:20;20.60;1.00
23143;DHT22;11740;51.168;4.112;2022-08-19T01:00:49;20.50;99.90
23143;DHT22;11740;51.168;4.112;2022-08-19T01:03:17;20.50;1.00
23143;DHT22;11740;51.168;4.112;2022-08-19T01:05:46;20.50;1.00
23143;DHT22;11740;51.168;4.112;2022-08-19T01:08:17;20.60;1.00
23143;DHT22;11740;51.168;4.112;2022-08-19T01:10:50;20.50;1.00
23143;DHT22;11740;51.168;4.112;2022-08-19T01:13:20;20.40;99.90
23143;DHT22;11740;51.168;4.112;2022-08-19T01:16:01;20.40;1.00
23143;DHT22;11740;51.168;4.112;2022-08-19T01:18:31;20.40;99.90
23143;DHT22;11740;51.168;4.112;2022-08-19T01:21:01;20.30;99.90
23143;DHT22;11740;51.168;4.112;2022-08-19T01:23:29;20.30;99.90
23143;DHT22;11740;51.168;4.112;2022-08-19T01:26:13;20.20;99.90
23143;DHT22;11740;51.168;4.112;2022-08-19T01:28:43;20.10;1.00
23143;DHT22;11740;51.168;4.112;2022-08-19T01:31:22;20.10;1.00
23143;DHT22;11740;51.168;4.112;2022-08-19T01:33:54;20.10;1.00
23143;DHT22;11740;51.168;4.112;2022-08-19T01:36:24;20.00;99.90
23143;DHT22;11740;51.168;4.112;2022-08-19T01:38:53;19.90;99.90
23143;DHT22;11740;51.168;4.112;2022-08-19T01:41:21;20.00;1.00
23143;DHT22;11740;51.168;4.112;2022-08-19T01:43:50;20.00;99.90
23143;DHT22;11740;51.168;4.112;2022-08-19T01:46:38;20.00;1.00
23143;DHT22;11740;51.168;4.112;2022-08-19T01:49:06;19.90;99.90
23143;DHT22;11740;51.168;4.112;2022-08-19T01:51:34;19.90;79.30
23143;DHT22;11740;51.168;4.112;2022-08-19T01:54:06;19.90;1.00
23143;DHT22;11740;51.168;4.112;2022-08-19T01:56:34;19.90;1.00
23143;DHT22;11740;51.168;4.112;2022-08-19T01:59:02;19.80;99.90
23143;DHT22;11740;51.168;4.112;2022-08-19T02:01:31;19.70;1.00
23143;DHT22;11740;51.168;4.112;2022-08-19T02:03:59;19.50;1.00
23143;DHT22;11740;51.168;4.112;2022-08-19T02:06:27;19.60;1.00
23143;DHT22;11740;51.168;4.112;2022-08-19T02:08:55;19.60;99.90
23143;DHT22;11740;51.168;4.112;2022-08-19T02:11:27;19.70;99.90
23143;DHT22;11740;51.168;4.112;2022-08-19T02:13:58;19.70;1.00
23143;DHT22;11740;51.168;4.112;2022-08-19T02:16:26;19.60;99.90
23143;DHT22;11740;51.168;4.112;2022-08-19T02:18:53;19.50;99.90
23143;DHT22;11740;51.168;4.112;2022-08-19T02:21:21;19.50;99.90
23143;DHT22;11740;51.168;4.112;2022-08-19T02:23:49;19.40;1.00
23143;DHT22;11740;51.168;4.112;2022-08-19T02:26:17;19.30;52.50
23143;DHT22;11740;51.168;4.112;2022-08-19T02:28:45;19.30;30.40
23143;DHT22;11740;51.168;4.112;2022-08-19T02:31:13;19.20;37.10
23143;DHT22;11740;51.168;4.112;2022-08-19T02:33:44;19.20;1.00
23143;DHT22;11740;51.168;4.112;2022-08-19T02:36:12;19.20;30.80
23143;DHT22;11740;51.168;4.112;2022-08-19T02:38:41;19.20;1.00
23143;DHT22;11740;51.168;4.112;2022-08-19T02:41:16;19.20;1.00
23143;DHT22;11740;51.168;4.112;2022-08-19T02:43:46;19.10;99.90
23143;DHT22;11740;51.168;4.112;2022-08-19T02:46:34;19.00;81.20
23143;DHT22;11740;51.168;4.112;2022-08-19T02:49:03;19.00;99.90
23143;DHT22;11740;51.168;4.112;2022-08-19T02:51:34;18.90;1.00
23143;DHT22;11740;51.168;4.112;2022-08-19T02:54:03;18.90;1.00
23143;DHT22;11740;51.168;4.112;2022-08-19T02:56:30;18.80;1.00
23143;DHT22;11740;51.168;4.112;2022-08-19T02:58:58;18.90;99.90
23143;DHT22;11740;51.168;4.112;2022-08-19T03:01:26;18.80;99.90
23143;DHT22;11740;51.168;4.112;2022-08-19T03:03:57;18.80;1.00
23143;DHT22;11740;51.168;4.112;2022-08-19T03:06:26;18.70;1.00
23143;DHT22;11740;51.168;4.112;2022-08-19T03:08:53;18.70;1.00
23143;DHT22;11740;51.168;4.112;2022-08-19T03:11:26;18.70;1.00
23143;DHT22;11740;51.168;4.112;2022-08-19T03:13:54;18.70;99.90
23143;DHT22;11740;51.168;4.112;2022-08-19T03:16:22;18.70;1.00
23143;DHT22;11740;51.168;4.112;2022-08-19T03:18:50;18.60;1.00
23143;DHT22;11740;51.168;4.112;2022-08-19T03:21:19;18.60;1.00
23143;DHT22;11740;51.168;4.112;2022-08-19T03:23:47;18.50;99.90
23143;DHT22;11740;51.168;4.112;2022-08-19T03:26:14;18.40;99.90
23143;DHT22;11740;51.168;4.112;2022-08-19T03:28:43;18.30;99.90
23143;DHT22;11740;51.168;4.112;2022-08-19T03:31:23;18.30;99.90
23143;DHT22;11740;51.168;4.112;2022-08-19T03:34:11;18.30;1.00
23143;DHT22;11740;51.168;4.112;2022-08-19T03:36:40;18.20;99.90
23143;DHT22;11740;51.168;4.112;2022-08-19T03:39:07;18.10;1.00
23143;DHT22;11740;51.168;4.112;2022-08-19T03:41:39;18.10;1.00
23143;DHT22;11740;51.168;4.112;2022-08-19T03:44:15;18.10;1.00
23143;DHT22;11740;51.168;4.112;2022-08-19T03:46:46;18.00;1.00
23143;DHT22;11740;51.168;4.112;2022-08-19T03:49:15;18.00;1.00
23143;DHT22;11740;51.168;4.112;2022-08-19T03:51:44;18.00;1.00
23143;DHT22;11740;51.168;4.112;2022-08-19T03:54:12;18.10;1.00
23143;DHT22;11740;51.168;4.112;2022-08-19T03:56:41;17.90;6.00
23143;DHT22;11740;51.168;4.112;2022-08-19T03:59:10;17.90;1.00
23143;DHT22;11740;51.168;4.112;2022-08-19T04:01:40;17.90;1.00
23143;DHT22;11740;51.168;4.112;2022-08-19T04:04:07;17.90;5.20
23143;DHT22;11740;51.168;4.112;2022-08-19T04:06:35;17.80;1.00
23143;DHT22;11740;51.168;4.112;2022-08-19T04:09:06;17.90;1.00
23143;DHT22;11740;51.168;4.112;2022-08-19T04:11:35;17.90;1.00
23143;DHT22;11740;51.168;4.112;2022-08-19T04:14:16;17.70;13.60
23143;DHT22;11740;51.168;4.112;2022-08-19T04:16:45;17.70;99.90
23143;DHT22;11740;51.168;4.112;2022-08-19T04:19:13;17.70;99.90
23143;DHT22;11740;51.168;4.112;2022-08-19T04:21:42;17.70;1.00
23143;DHT22;11740;51.168;4.112;2022-08-19T04:24:10;17.70;1.00
23143;DHT22;11740;51.168;4.112;2022-08-19T04:26:38;17.70;1.00
23143;DHT22;11740;51.168;4.112;2022-08-19T04:29:10;17.60;1.00
23143;DHT22;11740;51.168;4.112;2022-08-19T04:31:40;17.70;1.00
23143;DHT22;11740;51.168;4.112;2022-08-19T04:34:09;17.70;1.00
23143;DHT22;11740;51.168;4.112;2022-08-19T04:36:38;17.60;13.60
23143;DHT22;11740;51.168;4.112;2022-08-19T04:39:11;17.60;15.00
23143;DHT22;11740;51.168;4.112;2022-08-19T04:41:42;17.50;5.00
23143;DHT22;11740;51.168;4.112;2022-08-19T04:44:29;17.50;1.00
23143;DHT22;11740;51.168;4.112;2022-08-19T04:46:59;17.50;99.90
23143;DHT22;11740;51.168;4.112;2022-08-19T04:49:26;17.50;1.00
23143;DHT22;11740;51.168;4.112;2022-08-19T04:51:53;17.50;27.30
23143;DHT22;11740;51.168;4.112;2022-08-19T04:54:22;17.50;1.00
23143;DHT22;11740;51.168;4.112;2022-08-19T04:57:05;17.50;1.00
23143;DHT22;11740;51.168;4.112;2022-08-19T04:59:37;17.40;1.00
23143;DHT22;11740;51.168;4.112;2022-08-19T05:02:06;17.40;1.00
23143;DHT22;11740;51.168;4.112;2022-08-19T05:04:34;17.40;99.90
23143;DHT22;11740;51.168;4.112;2022-08-19T05:07:05;17.30;99.90
23143;DHT22;11740;51.168;4.112;2022-08-19T05:09:34;17.30;99.90
23143;DHT22;11740;51.168;4.112;2022-08-19T05:12:21;17.30;99.90
23143;DHT22;11740;51.168;4.112;2022-08-19T05:14:54;17.30;99.90
23143;DHT22;11740;51.168;4.112;2022-08-19T05:17:24;17.30;99.90
23143;DHT22;11740;51.168;4.112;2022-08-19T05:19:54;17.30;99.90
23143;DHT22;11740;51.168;4.112;2022-08-19T05:22:41;17.30;99.90
23143;DHT22;11740;51.168;4.112;2022-08-19T05:25:10;17.30;1.00
23143;DHT22;11740;51.168;4.112;2022-08-19T05:27:40;17.40;99.90
23143;DHT22;11740;51.168;4.112;2022-08-19T05:30:08;17.30;1.00
23143;DHT22;11740;51.168;4.112;2022-08-19T05:32:36;17.30;1.00
23143;DHT22;11740;51.168;4.112;2022-08-19T05:35:04;17.40;1.00
23143;DHT22;11740;51.168;4.112;2022-08-19T05:37:32;17.40;1.00
23143;DHT22;11740;51.168;4.112;2022-08-19T05:39:59;17.40;1.00
23143;DHT22;11740;51.168;4.112;2022-08-19T05:42:26;17.40;99.90
23143;DHT22;11740;51.168;4.112;2022-08-19T05:44:53;17.60;1.00
23143;DHT22;11740;51.168;4.112;2022-08-19T05:47:19;17.60;1.00
23143;DHT22;11740;51.168;4.112;2022-08-19T05:49:47;17.60;28.70
23143;DHT22;11740;51.168;4.112;2022-08-19T05:52:16;17.60;99.90
23143;DHT22;11740;51.168;4.112;2022-08-19T05:54:45;17.50;99.90
23143;DHT22;11740;51.168;4.112;2022-08-19T05:57:17;17.50;99.90
23143;DHT22;11740;51.168;4.112;2022-08-19T05:59:48;17.50;1.00
23143;DHT22;11740;51.168;4.112;2022-08-19T06:02:24;17.50;1.00
23143;DHT22;11740;51.168;4.112;2022-08-19T06:04:55;17.60;1.00
23143;DHT22;11740;51.168;4.112;2022-08-19T06:07:22;17.60;1.00
23143;DHT22;11740;51.168;4.112;2022-08-19T06:09:52;17.60;99.90
23143;DHT22;11740;51.168;4.112;2022-08-19T06:12:27;17.70;1.00
23143;DHT22;11740;51.168;4.112;2022-08-19T06:15:05;17.70;1.00
23143;DHT22;11740;51.168;4.112;2022-08-19T06:17:35;17.70;1.00
23143;DHT22;11740;51.168;4.112;2022-08-19T06:20:03;17.70;1.00
23143;DHT22;11740;51.168;4.112;2022-08-19T06:22:37;17.80;99.90
23143;DHT22;11740;51.168;4.112;2022-08-19T06:25:07;17.80;1.00
23143;DHT22;11740;51.168;4.112;2022-08-19T06:27:35;17.80;1.00
23143;DHT22;11740;51.168;4.112;2022-08-19T06:30:10;17.90;1.00
23143;DHT22;11740;51.168;4.112;2022-08-19T06:32:38;17.90;1.00
23143;DHT22;11740;51.168;4.112;2022-08-19T06:35:08;17.90;1.00
23143;DHT22;11740;51.168;4.112;2022-08-19T06:37:39;17.90;1.00
23143;DHT22;11740;51.168;4.112;2022-08-19T06:40:09;18.00;1.00
23143;DHT22;11740;51.168;4.112;2022-08-19T06:42:37;18.00;1.00
23143;DHT22;11740;51.168;4.112;2022-08-19T06:45:10;18.10;1.00
23143;DHT22;11740;51.168;4.112;2022-08-19T06:47:37;18.10;1.00
23143;DHT22;11740;51.168;4.112;2022-08-19T06:50:04;18.10;1.00
23143;DHT22;11740;51.168;4.112;2022-08-19T06:52:32;18.20;1.00
23143;DHT22;11740;51.168;4.112;2022-08-19T06:55:02;18.20;1.00
23143;DHT22;11740;51.168;4.112;2022-08-19T06:57:32;18.20;1.00
23143;DHT22;11740;51.168;4.112;2022-08-19T07:00:00;18.30;1.00
23143;DHT22;11740;51.168;4.112;2022-08-19T07:02:27;18.30;1.00
23143;DHT22;11740;51.168;4.112;2022-08-19T07:04:54;18.40;1.00
23143;DHT22;11740;51.168;4.112;2022-08-19T07:07:24;18.40;1.00
23143;DHT22;11740;51.168;4.112;2022-08-19T07:09:51;18.50;1.00
23143;DHT22;11740;51.168;4.112;2022-08-19T07:12:27;18.50;1.00
23143;DHT22;11740;51.168;4.112;2022-08-19T07:14:56;18.50;1.00
23143;DHT22;11740;51.168;4.112;2022-08-19T07:17:24;18.60;1.00
23143;DHT22;11740;51.168;4.112;2022-08-19T07:19:52;18.60;1.00
23143;DHT22;11740;51.168;4.112;2022-08-19T07:22:20;18.70;1.00
23143;DHT22;11740;51.168;4.112;2022-08-19T07:24:50;18.70;1.00
23143;DHT22;11740;51.168;4.112;2022-08-19T07:27:18;18.70;1.00
23143;DHT22;11740;51.168;4.112;2022-08-19T07:29:51;18.80;25.20
23143;DHT22;11740;51.168;4.112;2022-08-19T07:32:23;18.80;1.00
23143;DHT22;11740;51.168;4.112;2022-08-19T07:34:52;18.80;90.60
23143;DHT22;11740;51.168;4.112;2022-08-19T07:37:20;18.80;1.00
23143;DHT22;11740;51.168;4.112;2022-08-19T07:39:47;18.90;1.00
23143;DHT22;11740;51.168;4.112;2022-08-19T07:42:16;18.90;9.60
23143;DHT22;11740;51.168;4.112;2022-08-19T07:44:47;19.00;1.00
23143;DHT22;11740;51.168;4.112;2022-08-19T07:47:16;19.10;1.00
23143;DHT22;11740;51.168;4.112;2022-08-19T07:50:06;19.10;1.00
23143;DHT22;11740;51.168;4.112;2022-08-19T07:52:35;19.10;1.00
23143;DHT22;11740;51.168;4.112;2022-08-19T07:55:07;19.20;1.00
23143;DHT22;11740;51.168;4.112;2022-08-19T07:57:56;19.30;1.00
23143;DHT22;11740;51.168;4.112;2022-08-19T08:00:23;19.30;1.00
23143;DHT22;11740;51.168;4.112;2022-08-19T08:02:50;19.30;1.00
23143;DHT22;11740;51.168;4.112;2022-08-19T08:05:20;19.40;1.00
23143;DHT22;11740;51.168;4.112;2022-08-19T08:08:10;19.40;1.00
23143;DHT22;11740;51.168;4.112;2022-08-19T08:10:57;19.40;1.00
23143;DHT22;11740;51.168;4.112;2022-08-19T08:13:25;19.50;1.00
23143;DHT22;11740;51.168;4.112;2022-08-19T08:15:54;19.50;1.00
23143;DHT22;11740;51.168;4.112;2022-08-19T08:18:25;19.50;1.00
23143;DHT22;11740;51.168;4.112;2022-08-19T08:20:56;19.60;1.00
23143;DHT22;11740;51.168;4.112;2022-08-19T08:23:24;19.60;1.00
23143;DHT22;11740;51.168;4.112;2022-08-19T08:25:53;19.60;1.00
23143;DHT22;11740;51.168;4.112;2022-08-19T08:28:21;19.60;99.90
23143;DHT22;11740;51.168;4.112;2022-08-19T08:30:49;19.70;1.00
23143;DHT22;11740;51.168;4.112;2022-08-19T08:33:18;19.70;99.90
23143;DHT22;11740;51.168;4.112;2022-08-19T08:36:00;19.70;1.00
23143;DHT22;11740;51.168;4.112;2022-08-19T08:38:38;19.80;99.90
23143;DHT22;11740;51.168;4.112;2022-08-19T08:41:18;19.80;99.90
23143;DHT22;11740;51.168;4.112;2022-08-19T08:43:52;19.80;99.90
23143;DHT22;11740;51.168;4.112;2022-08-19T08:46:37;19.90;1.00
23143;DHT22;11740;51.168;4.112;2022-08-19T08:51:52;20.00;99.90
23143;DHT22;11740;51.168;4.112;2022-08-19T08:54:29;20.00;99.90
23143;DHT22;11740;51.168;4.112;2022-08-19T08:57:03;20.00;1.00
23143;DHT22;11740;51.168;4.112;2022-08-19T08:59:33;20.10;1.00
23143;DHT22;11740;51.168;4.112;2022-08-19T09:02:02;20.00;99.90
23143;DHT22;11740;51.168;4.112;2022-08-19T09:04:29;20.00;1.00
23143;DHT22;11740;51.168;4.112;2022-08-19T09:10:04;20.10;99.90
23143;DHT22;11740;51.168;4.112;2022-08-19T09:12:47;20.10;99.90
23143;DHT22;11740;51.168;4.112;2022-08-19T09:15:22;20.10;99.90
23143;DHT22;11740;51.168;4.112;2022-08-19T09:18:02;20.20;1.00
23143;DHT22;11740;51.168;4.112;2022-08-19T09:20:32;20.20;1.00
23143;DHT22;11740;51.168;4.112;2022-08-19T09:23:00;20.10;1.00
23143;DHT22;11740;51.168;4.112;2022-08-19T09:25:28;20.20;99.90
23143;DHT22;11740;51.168;4.112;2022-08-19T09:27:55;20.20;99.90
23143;DHT22;11740;51.168;4.112;2022-08-19T09:30:30;20.20;1.00
23143;DHT22;11740;51.168;4.112;2022-08-19T09:32:58;20.20;99.90
23143;DHT22;11740;51.168;4.112;2022-08-19T09:35:27;20.30;99.90
23143;DHT22;11740;51.168;4.112;2022-08-19T09:37:56;20.30;99.90
23143;DHT22;11740;51.168;4.112;2022-08-19T09:40:29;20.30;99.90
23143;DHT22;11740;51.168;4.112;2022-08-19T09:43:03;20.40;99.90
23143;DHT22;11740;51.168;4.112;2022-08-19T09:45:38;20.40;99.90
23143;DHT22;11740;51.168;4.112;2022-08-19T09:48:05;20.50;99.90
23143;DHT22;11740;51.168;4.112;2022-08-19T09:50:32;20.50;99.90
23143;DHT22;11740;51.168;4.112;2022-08-19T09:53:01;20.50;99.90
23143;DHT22;11740;51.168;4.112;2022-08-19T09:55:28;20.50;99.90
23143;DHT22;11740;51.168;4.112;2022-08-19T09:57:59;20.60;99.90
23143;DHT22;11740;51.168;4.112;2022-08-19T10:00:26;20.60;99.90
23143;DHT22;11740;51.168;4.112;2022-08-19T10:02:53;20.60;99.90
23143;DHT22;11740;51.168;4.112;2022-08-19T10:05:20;20.70;99.90
23143;DHT22;11740;51.168;4.112;2022-08-19T10:08:08;20.70;99.90
23143;DHT22;11740;51.168;4.112;2022-08-19T10:10:42;20.80;99.90
23143;DHT22;11740;51.168;4.112;2022-08-19T10:13:13;20.80;90.00
23143;DHT22;11740;51.168;4.112;2022-08-19T10:15:41;20.80;1.00
23143;DHT22;11740;51.168;4.112;2022-08-19T10:18:14;20.80;1.00
23143;DHT22;11740;51.168;4.112;2022-08-19T10:20:48;20.80;74.40
23143;DHT22;11740;51.168;4.112;2022-08-19T10:23:17;20.90;1.00
23143;DHT22;11740;51.168;4.112;2022-08-19T10:25:45;20.90;33.20
23143;DHT22;11740;51.168;4.112;2022-08-19T10:28:13;20.90;1.00
23143;DHT22;11740;51.168;4.112;2022-08-19T10:30:40;21.00;1.00
23143;DHT22;11740;51.168;4.112;2022-08-19T10:33:08;21.00;1.00
23143;DHT22;11740;51.168;4.112;2022-08-19T10:35:36;21.10;1.00
23143;DHT22;11740;51.168;4.112;2022-08-19T10:38:23;21.10;1.00
23143;DHT22;11740;51.168;4.112;2022-08-19T10:40:57;21.20;1.00
23143;DHT22;11740;51.168;4.112;2022-08-19T10:43:24;21.20;1.00
23143;DHT22;11740;51.168;4.112;2022-08-19T10:45:52;21.30;1.00
23143;DHT22;11740;51.168;4.112;2022-08-19T10:48:23;21.40;1.00
23143;DHT22;11740;51.168;4.112;2022-08-19T10:50:50;21.50;1.00
23143;DHT22;11740;51.168;4.112;2022-08-19T10:53:48;21.60;99.90
23143;DHT22;11740;51.168;4.112;2022-08-19T10:56:16;21.60;99.90
23143;DHT22;11740;51.168;4.112;2022-08-19T10:59:03;21.70;99.90
23143;DHT22;11740;51.168;4.112;2022-08-19T11:01:31;21.80;7.80
23143;DHT22;11740;51.168;4.112;2022-08-19T11:04:01;21.90;15.80
23143;DHT22;11740;51.168;4.112;2022-08-19T11:06:28;22.00;99.90
23143;DHT22;11740;51.168;4.112;2022-08-19T11:08:57;22.10;1.00
23143;DHT22;11740;51.168;4.112;2022-08-19T11:11:24;22.10;1.00
23143;DHT22;11740;51.168;4.112;2022-08-19T11:13:52;22.10;1.00
23143;DHT22;11740;51.168;4.112;2022-08-19T11:16:20;22.20;1.00
23143;DHT22;11740;51.168;4.112;2022-08-19T11:18:49;22.20;1.00
23143;DHT22;11740;51.168;4.112;2022-08-19T11:23:47;22.40;1.00
23143;DHT22;11740;51.168;4.112;2022-08-19T11:26:16;22.50;1.00
23143;DHT22;11740;51.168;4.112;2022-08-19T11:28:43;22.60;99.90
23143;DHT22;11740;51.168;4.112;2022-08-19T11:31:16;22.70;99.90
23143;DHT22;11740;51.168;4.112;2022-08-19T11:33:45;22.70;99.90
23143;DHT22;11740;51.168;4.112;2022-08-19T11:36:13;22.80;99.90
23143;DHT22;11740;51.168;4.112;2022-08-19T11:38:41;22.80;99.90
23143;DHT22;11740;51.168;4.112;2022-08-19T11:41:08;22.90;67.80
23143;DHT22;11740;51.168;4.112;2022-08-19T11:43:36;23.00;30.10
23143;DHT22;11740;51.168;4.112;2022-08-19T11:46:04;23.00;1.00
23143;DHT22;11740;51.168;4.112;2022-08-19T11:48:34;23.10;1.00
23143;DHT22;11740;51.168;4.112;2022-08-19T11:51:03;23.10;1.00
23143;DHT22;11740;51.168;4.112;2022-08-19T11:53:32;23.10;1.00
23143;DHT22;11740;51.168;4.112;2022-08-19T11:56:01;23.10;1.00
23143;DHT22;11740;51.168;4.112;2022-08-19T11:58:28;23.10;1.00
23143;DHT22;11740;51.168;4.112;2022-08-19T12:00:56;23.10;1.00
23143;DHT22;11740;51.168;4.112;2022-08-19T12:03:23;23.20;1.00
23143;DHT22;11740;51.168;4.112;2022-08-19T12:05:50;23.30;1.00
23143;DHT22;11740;51.168;4.112;2022-08-19T12:08:17;23.40;1.00
23143;DHT22;11740;51.168;4.112;2022-08-19T12:10:45;23.40;1.00
23143;DHT22;11740;51.168;4.112;2022-08-19T12:13:12;23.40;99.90
23143;DHT22;11740;51.168;4.112;2022-08-19T12:15:45;23.50;99.90
23143;DHT22;11740;51.168;4.112;2022-08-19T12:18:13;23.50;99.90
23143;DHT22;11740;51.168;4.112;2022-08-19T12:20:41;23.50;99.90
23143;DHT22;11740;51.168;4.112;2022-08-19T12:23:09;23.60;1.00
23143;DHT22;11740;51.168;4.112;2022-08-19T12:25:37;23.60;1.00
23143;DHT22;11740;51.168;4.112;2022-08-19T12:28:14;23.60;99.90
23143;DHT22;11740;51.168;4.112;2022-08-19T12:30:42;23.70;83.80
23143;DHT22;11740;51.168;4.112;2022-08-19T12:33:09;23.80;99.90
23143;DHT22;11740;51.168;4.112;2022-08-19T12:35:39;23.80;27.00
23143;DHT22;11740;51.168;4.112;2022-08-19T12:38:11;23.90;1.00
23143;DHT22;11740;51.168;4.112;2022-08-19T12:40:38;23.90;1.40
23143;DHT22;11740;51.168;4.112;2022-08-19T12:43:06;24.00;1.00
23143;DHT22;11740;51.168;4.112;2022-08-19T12:45:34;24.10;1.00
23143;DHT22;11740;51.168;4.112;2022-08-19T12:48:03;24.20;1.00
23143;DHT22;11740;51.168;4.112;2022-08-19T12:50:51;24.30;99.90
23143;DHT22;11740;51.168;4.112;2022-08-19T12:53:19;24.30;1.00
23143;DHT22;11740;51.168;4.112;2022-08-19T12:55:46;24.30;1.00
23143;DHT22;11740;51.168;4.112;2022-08-19T12:58:13;24.40;1.00
23143;DHT22;11740;51.168;4.112;2022-08-19T13:00:39;24.50;1.00
23143;DHT22;11740;51.168;4.112;2022-08-19T13:03:07;24.50;99.90
23143;DHT22;11740;51.168;4.112;2022-08-19T13:05:34;24.60;1.00
23143;DHT22;11740;51.168;4.112;2022-08-19T13:08:01;24.80;1.00
23143;DHT22;11740;51.168;4.112;2022-08-19T13:10:30;24.90;99.90
23143;DHT22;11740;51.168;4.112;2022-08-19T13:13:05;24.90;13.00
23143;DHT22;11740;51.168;4.112;2022-08-19T13:15:34;25.20;1.00
23143;DHT22;11740;51.168;4.112;2022-08-19T13:18:03;25.40;1.00
23143;DHT22;11740;51.168;4.112;2022-08-19T13:20:30;25.40;1.00
23143;DHT22;11740;51.168;4.112;2022-08-19T13:22:57;25.40;1.00
23143;DHT22;11740;51.168;4.112;2022-08-19T13:25:24;25.30;99.90
23143;DHT22;11740;51.168;4.112;2022-08-19T13:27:52;25.30;1.00
23143;DHT22;11740;51.168;4.112;2022-08-19T13:30:19;25.20;99.90
23143;DHT22;11740;51.168;4.112;2022-08-19T13:33:05;25.10;99.90
23143;DHT22;11740;51.168;4.112;2022-08-19T13:35:46;25.10;99.90
23143;DHT22;11740;51.168;4.112;2022-08-19T13:38:16;25.10;99.90
23143;DHT22;11740;51.168;4.112;2022-08-19T13:40:45;25.20;99.90
23143;DHT22;11740;51.168;4.112;2022-08-19T13:43:13;25.30;99.90
23143;DHT22;11740;51.168;4.112;2022-08-19T13:45:50;25.30;1.00
23143;DHT22;11740;51.168;4.112;2022-08-19T13:48:20;25.30;1.00
23143;DHT22;11740;51.168;4.112;2022-08-19T13:50:47;25.20;1.00
23143;DHT22;11740;51.168;4.112;2022-08-19T13:53:14;25.10;1.00
23143;DHT22;11740;51.168;4.112;2022-08-19T13:55:42;25.10;1.00
23143;DHT22;11740;51.168;4.112;2022-08-19T13:58:10;25.10;1.00
23143;DHT22;11740;51.168;4.112;2022-08-19T14:00:39;25.10;1.00
23143;DHT22;11740;51.168;4.112;2022-08-19T14:03:07;25.10;91.00
23143;DHT22;11740;51.168;4.112;2022-08-19T14:05:35;25.00;1.00
23143;DHT22;11740;51.168;4.112;2022-08-19T14:08:02;24.80;1.00
23143;DHT22;11740;51.168;4.112;2022-08-19T14:10:29;24.80;99.90
23143;DHT22;11740;51.168;4.112;2022-08-19T14:12:58;24.80;1.00
23143;DHT22;11740;51.168;4.112;2022-08-19T14:15:28;24.90;1.00
23143;DHT22;11740;51.168;4.112;2022-08-19T14:17:55;25.00;1.00
23143;DHT22;11740;51.168;4.112;2022-08-19T14:20:22;24.90;99.90
23143;DHT22;11740;51.168;4.112;2022-08-19T14:22:52;24.80;99.90
23143;DHT22;11740;51.168;4.112;2022-08-19T14:25:22;24.50;1.00
23143;DHT22;11740;51.168;4.112;2022-08-19T14:27:52;24.20;99.90
23143;DHT22;11740;51.168;4.112;2022-08-19T14:30:41;24.20;99.90
23143;DHT22;11740;51.168;4.112;2022-08-19T14:33:06;24.10;1.00
23143;DHT22;11740;51.168;4.112;2022-08-19T14:35:35;24.30;1.00
23143;DHT22;11740;51.168;4.112;2022-08-19T14:38:03;24.40;1.00
23143;DHT22;11740;51.168;4.112;2022-08-19T14:40:32;24.50;1.00
23143;DHT22;11740;51.168;4.112;2022-08-19T14:43:00;24.70;1.00
23143;DHT22;11740;51.168;4.112;2022-08-19T14:45:31;24.70;99.90
23143;DHT22;11740;51.168;4.112;2022-08-19T14:48:02;24.70;99.90
23143;DHT22;11740;51.168;4.112;2022-08-19T14:50:30;24.80;99.90
23143;DHT22;11740;51.168;4.112;2022-08-19T14:53:03;24.70;99.90
23143;DHT22;11740;51.168;4.112;2022-08-19T14:55:41;24.80;99.90
23143;DHT22;11740;51.168;4.112;2022-08-19T14:58:08;24.80;99.90
23143;DHT22;11740;51.168;4.112;2022-08-19T15:00:55;24.80;28.30
23143;DHT22;11740;51.168;4.112;2022-08-19T15:03:23;24.90;1.00
23143;DHT22;11740;51.168;4.112;2022-08-19T15:05:51;25.00;99.90
23143;DHT22;11740;51.168;4.112;2022-08-19T15:08:18;25.10;99.90
23143;DHT22;11740;51.168;4.112;2022-08-19T15:10:44;25.10;99.90
23143;DHT22;11740;51.168;4.112;2022-08-19T15:13:14;25.20;99.90
23143;DHT22;11740;51.168;4.112;2022-08-19T15:15:41;25.40;1.00
23143;DHT22;11740;51.168;4.112;2022-08-19T15:18:07;25.60;1.00
23143;DHT22;11740;51.168;4.112;2022-08-19T15:20:38;25.80;99.90
23143;DHT22;11740;51.168;4.112;2022-08-19T15:23:07;25.90;1.00
23143;DHT22;11740;51.168;4.112;2022-08-19T15:25:34;26.00;99.90
23143;DHT22;11740;51.168;4.112;2022-08-19T15:28:01;26.20;1.00
23143;DHT22;11740;51.168;4.112;2022-08-19T15:30:29;26.40;15.70
23143;DHT22;11740;51.168;4.112;2022-08-19T15:32:57;26.50;1.00
23143;DHT22;11740;51.168;4.112;2022-08-19T15:35:24;26.50;99.90
23143;DHT22;11740;51.168;4.112;2022-08-19T15:37:52;26.60;1.00
23143;DHT22;11740;51.168;4.112;2022-08-19T15:40:20;26.50;1.00
23143;DHT22;11740;51.168;4.112;2022-08-19T15:42:48;26.60;1.00
23143;DHT22;11740;51.168;4.112;2022-08-19T15:45:16;26.40;1.00
23143;DHT22;11740;51.168;4.112;2022-08-19T15:47:44;26.40;1.00
23143;DHT22;11740;51.168;4.112;2022-08-19T15:50:14;26.50;1.00
23143;DHT22;11740;51.168;4.112;2022-08-19T15:52:53;26.50;99.90
23143;DHT22;11740;51.168;4.112;2022-08-19T15:55:23;26.60;99.90
23143;DHT22;11740;51.168;4.112;2022-08-19T15:58:04;26.70;99.90
23143;DHT22;11740;51.168;4.112;2022-08-19T16:00:58;26.50;99.90
23143;DHT22;11740;51.168;4.112;2022-08-19T16:03:50;26.40;99.90
23143;DHT22;11740;51.168;4.112;2022-08-19T16:06:42;26.40;99.90
23143;DHT22;11740;51.168;4.112;2022-08-19T16:09:12;26.40;1.00